createdAt,value
2022-11-12T00:01:15.161Z,18.48
2022-11-12T00:04:35.896Z,19.00
2022-11-12T00:07:56.757Z,18.67
2022-11-12T00:11:17.710Z,18.62
2022-11-12T00:14:38.423Z,19.02
2022-11-12T00:17:59.382Z,19.90
2022-11-12T00:21:20.137Z,17.17
2022-11-12T00:24:41.014Z,17.48
2022-11-12T00:28:10.278Z,16.87
2022-11-12T00:31:31.204Z,16.62
2022-11-12T00:34:52.467Z,15.82
2022-11-12T00:38:13.796Z,15.93
2022-11-12T00:41:34.644Z,16.67
2022-11-12T00:44:55.441Z,15.60
2022-11-12T00:48:16.168Z,16.67
2022-11-12T00:51:37.190Z,17.77
2022-11-12T00:54:58.003Z,17.15
2022-11-12T00:58:19.160Z,16.48
2022-11-12T01:01:40.598Z,14.82
2022-11-12T01:05:01.568Z,12.80
2022-11-12T01:08:22.336Z,14.40
2022-11-12T01:11:43.129Z,14.60
2022-11-12T01:15:05.783Z,13.38
2022-11-12T01:18:26.743Z,12.77
2022-11-12T01:21:47.803Z,13.45
2022-11-12T01:25:08.910Z,13.30
2022-11-12T01:28:30.027Z,14.73
2022-11-12T01:31:50.873Z,14.68
2022-11-12T01:35:12.170Z,16.33
2022-11-12T01:38:40.383Z,17.15
2022-11-12T01:42:01.299Z,16.80
2022-11-12T01:45:22.359Z,17.50
2022-11-12T01:48:58.903Z,18.15
2022-11-12T01:52:39.683Z,17.37
2022-11-12T01:56:03.714Z,16.92
2022-11-12T01:59:33.416Z,18.62
2022-11-12T02:02:57.671Z,18.25
2022-11-12T02:06:20.286Z,17.42
2022-11-12T02:09:41.711Z,17.62
2022-11-12T02:13:21.261Z,17.00
2022-11-12T02:16:45.364Z,17.15
2022-11-12T02:20:09.895Z,17.77
2022-11-12T02:23:32.264Z,16.30
2022-11-12T02:26:55.557Z,18.17
2022-11-12T02:30:16.791Z,17.20
2022-11-12T02:33:37.511Z,17.12
2022-11-12T02:36:58.399Z,18.10
2022-11-12T02:40:19.231Z,17.65
2022-11-12T02:43:41.118Z,16.75
2022-11-12T02:47:02.042Z,17.42
2022-11-12T02:50:22.764Z,17.83
2022-11-12T02:53:43.567Z,17.83
2022-11-12T02:57:04.318Z,17.98
2022-11-12T03:00:25.517Z,18.17
2022-11-12T03:03:46.170Z,16.42
2022-11-12T03:07:07.025Z,15.65
2022-11-12T03:10:28.676Z,15.40
2022-11-12T03:13:49.347Z,15.93
2022-11-12T03:17:10.305Z,15.73
2022-11-12T03:20:31.326Z,16.37
2022-11-12T03:23:52.358Z,16.67
2022-11-12T03:27:13.320Z,16.37
2022-11-12T03:30:36.932Z,15.90
2022-11-12T03:33:57.515Z,16.55
2022-11-12T03:37:18.369Z,16.17
2022-11-12T03:40:58.009Z,17.92
2022-11-12T03:44:18.484Z,18.52
2022-11-12T03:47:43.997Z,20.00
2022-11-12T03:51:04.705Z,19.73
2022-11-12T03:54:25.570Z,20.20
2022-11-12T03:57:49.249Z,20.55
2022-11-12T04:01:10.169Z,21.15
2022-11-12T04:04:50.922Z,19.55
2022-11-12T04:08:36.915Z,20.88
2022-11-12T04:12:17.221Z,19.25
2022-11-12T04:15:37.880Z,19.80
2022-11-12T04:19:19.128Z,19.50
2022-11-12T04:22:40.078Z,17.80
2022-11-12T04:26:19.462Z,18.92
2022-11-12T04:29:58.704Z,18.73
2022-11-12T04:33:19.379Z,19.12
2022-11-12T04:36:40.096Z,18.77
2022-11-12T04:40:20.714Z,18.62
2022-11-12T04:43:59.826Z,18.48
2022-11-12T04:47:20.522Z,18.00
2022-11-12T04:50:43.389Z,17.00
2022-11-12T04:54:04.166Z,16.40
2022-11-12T04:57:25.691Z,16.27
2022-11-12T05:00:46.816Z,16.45
2022-11-12T05:04:07.465Z,16.35
2022-11-12T05:07:28.571Z,16.42
2022-11-12T05:10:49.426Z,16.92
2022-11-12T05:14:10.125Z,17.52
2022-11-12T05:17:30.802Z,16.37
2022-11-12T05:20:53.564Z,16.83
2022-11-12T05:24:33.676Z,16.87
2022-11-12T05:27:55.010Z,16.60
2022-11-12T05:31:15.833Z,15.85
2022-11-12T05:34:36.804Z,16.48
2022-11-12T05:37:57.807Z,16.62
2022-11-12T05:41:20.363Z,15.93
2022-11-12T05:44:41.238Z,15.73
2022-11-12T05:48:01.807Z,16.08
2022-11-12T05:51:23.111Z,16.25
2022-11-12T05:54:44.123Z,16.30
2022-11-12T05:58:06.454Z,16.98
2022-11-12T06:01:27.075Z,15.70
2022-11-12T06:04:48.193Z,16.40
2022-11-12T06:08:09.044Z,16.05
2022-11-12T06:11:29.853Z,17.02
2022-11-12T06:14:50.618Z,16.65
2022-11-12T06:18:11.950Z,17.55
2022-11-12T06:21:32.557Z,16.48
2022-11-12T06:24:53.438Z,16.30
2022-11-12T06:28:14.410Z,15.35
2022-11-12T06:31:35.319Z,17.67
2022-11-12T06:34:56.032Z,17.33
2022-11-12T06:38:16.835Z,21.92
2022-11-12T06:41:37.768Z,22.20
2022-11-12T06:44:58.617Z,17.45
2022-11-12T06:48:19.611Z,17.50
2022-11-12T06:51:41.291Z,16.92
2022-11-12T06:55:01.767Z,16.30
2022-11-12T06:58:22.554Z,16.55
2022-11-12T07:01:43.380Z,16.60
2022-11-12T07:05:04.296Z,17.50
2022-11-12T07:08:25.524Z,16.95
2022-11-12T07:11:46.552Z,19.80
2022-11-12T07:15:07.581Z,23.77
2022-11-12T07:18:29.234Z,16.60
2022-11-12T07:21:49.951Z,15.55
2022-11-12T07:25:10.701Z,16.05
2022-11-12T07:28:31.582Z,15.45
2022-11-12T07:31:52.505Z,15.70
2022-11-12T07:35:13.451Z,14.80
2022-11-12T07:38:36.566Z,15.25
2022-11-12T07:41:57.524Z,15.23
2022-11-12T07:45:18.178Z,15.55
2022-11-12T07:48:39.510Z,14.80
2022-11-12T07:52:00.249Z,15.27
2022-11-12T07:55:20.835Z,16.58
2022-11-12T07:58:42.034Z,15.77
2022-11-12T08:02:05.924Z,15.70
2022-11-12T08:05:26.804Z,16.17
2022-11-12T08:08:47.465Z,15.35
2022-11-12T08:12:08.474Z,14.87
2022-11-12T08:15:30.554Z,32.72
2022-11-12T08:18:51.355Z,15.88
2022-11-12T08:22:12.038Z,15.00
2022-11-12T08:25:35.418Z,15.65
2022-11-12T08:29:01.693Z,16.62
2022-11-12T08:32:26.269Z,16.02
2022-11-12T08:35:47.174Z,16.12
2022-11-12T08:39:08.531Z,16.75
2022-11-12T08:42:29.389Z,16.90
2022-11-12T08:45:50.249Z,18.52
2022-11-12T08:49:11.058Z,17.30
2022-11-12T08:52:32.771Z,17.70
2022-11-12T08:55:55.311Z,17.25
2022-11-12T08:59:16.309Z,17.37
2022-11-12T09:02:36.946Z,18.23
2022-11-12T09:05:57.788Z,18.40
2022-11-12T09:09:18.592Z,17.87
2022-11-12T09:12:39.271Z,18.08
2022-11-12T09:16:04.546Z,18.42
2022-11-12T09:19:25.302Z,23.38
2022-11-12T09:22:46.208Z,22.50
2022-11-12T09:26:07.240Z,17.65
2022-11-12T09:29:28.216Z,18.17
2022-11-12T09:32:49.141Z,18.35
2022-11-12T09:36:10.094Z,18.30
2022-11-12T09:39:30.614Z,19.23
2022-11-12T09:42:53.509Z,19.25
2022-11-12T09:46:38.231Z,18.58
2022-11-12T09:50:10.606Z,19.15
2022-11-12T09:53:40.245Z,18.92
2022-11-12T09:57:05.945Z,19.42
2022-11-12T10:00:26.721Z,19.30
2022-11-12T10:04:04.702Z,19.77
2022-11-12T10:07:35.266Z,18.80
2022-11-12T10:11:10.597Z,20.52
2022-11-12T10:14:49.492Z,20.10
2022-11-12T10:18:15.516Z,19.10
2022-11-12T10:21:46.706Z,17.62
2022-11-12T10:25:15.707Z,18.60
2022-11-12T10:28:50.112Z,19.85
2022-11-12T10:32:13.895Z,19.65
2022-11-12T10:35:36.733Z,31.80
2022-11-12T10:38:58.131Z,20.23
2022-11-12T10:42:20.726Z,19.23
2022-11-12T10:45:42.204Z,19.20
2022-11-12T10:49:07.027Z,18.58
2022-11-12T10:52:27.555Z,18.70
2022-11-12T10:56:00.530Z,19.10
2022-11-12T10:59:25.814Z,19.12
2022-11-12T11:02:50.649Z,19.02
2022-11-12T11:06:14.526Z,19.45
2022-11-12T11:13:55.990Z,17.85
2022-11-12T11:17:18.490Z,17.60
2022-11-12T11:21:24.248Z,18.75
2022-11-12T11:25:10.509Z,19.73
2022-11-12T11:28:42.938Z,18.20
2022-11-12T11:32:22.887Z,18.55
2022-11-12T11:35:51.204Z,18.58
2022-11-12T11:39:15.179Z,18.62
2022-11-12T11:42:51.860Z,18.42
2022-11-12T11:46:48.578Z,17.90
2022-11-12T11:50:17.319Z,19.02
2022-11-12T11:54:15.502Z,19.17
2022-11-12T11:57:40.588Z,19.50
2022-11-12T12:01:26.933Z,19.02
2022-11-12T12:04:51.480Z,19.62
2022-11-12T12:12:22.609Z,19.42
2022-11-12T12:16:11.243Z,18.77
2022-11-12T12:20:06.398Z,19.30
2022-11-12T12:23:40.848Z,19.65
2022-11-12T12:27:10.227Z,20.45
2022-11-12T12:30:35.479Z,18.85
2022-11-12T12:34:05.024Z,20.98
2022-11-12T12:38:12.213Z,23.30
2022-11-12T12:41:45.980Z,20.92
2022-11-12T12:45:36.082Z,20.90
2022-11-12T12:48:59.788Z,19.90
2022-11-12T12:52:20.852Z,19.92
2022-11-12T12:55:44.232Z,19.77
2022-11-12T12:59:22.069Z,19.45
2022-11-12T13:02:43.017Z,20.00
2022-11-12T13:06:38.214Z,19.58
2022-11-12T13:10:36.586Z,18.27
2022-11-12T13:14:17.324Z,19.50
2022-11-12T13:17:52.987Z,18.80
2022-11-12T13:21:15.059Z,18.95
2022-11-12T13:25:05.135Z,18.83
2022-11-12T13:28:26.355Z,19.65
2022-11-12T13:31:47.691Z,19.98
2022-11-12T13:35:12.615Z,20.73
2022-11-12T13:38:38.028Z,18.87
2022-11-12T13:42:18.258Z,19.90
2022-11-12T13:45:46.723Z,25.02
2022-11-12T13:49:14.271Z,25.58
2022-11-12T13:52:35.434Z,19.17
2022-11-12T13:55:56.426Z,16.10
2022-11-12T13:59:20.344Z,12.23
2022-11-12T14:02:48.082Z,11.45
2022-11-12T14:06:17.092Z,9.52
2022-11-12T14:10:02.211Z,8.27
2022-11-12T14:13:57.473Z,7.90
2022-11-12T14:17:43.776Z,6.68
2022-11-12T14:21:26.202Z,7.05
2022-11-12T14:24:52.381Z,7.10
2022-11-12T14:28:33.116Z,7.20
2022-11-12T14:32:02.808Z,9.05
2022-11-12T14:35:30.312Z,9.98
2022-11-12T14:38:57.571Z,10.50
2022-11-12T14:42:18.127Z,12.00
2022-11-12T14:45:48.467Z,11.60
2022-11-12T14:49:35.854Z,12.37
2022-11-12T14:53:05.738Z,12.27
2022-11-12T14:56:35.401Z,12.95
2022-11-12T14:59:57.626Z,12.25
2022-11-12T15:03:22.611Z,12.80
2022-11-12T15:06:54.823Z,12.07
2022-11-12T15:10:41.392Z,13.50
2022-11-12T15:14:04.164Z,13.70
2022-11-12T15:17:36.730Z,13.98
2022-11-12T15:21:09.769Z,14.52
2022-11-12T15:24:35.645Z,14.77
2022-11-12T15:28:12.168Z,14.68
2022-11-12T15:31:46.621Z,15.60
2022-11-12T15:39:00.997Z,17.05
2022-11-12T15:42:33.928Z,16.02
2022-11-12T15:45:56.029Z,16.87
2022-11-12T15:49:16.630Z,17.62
2022-11-12T15:52:37.466Z,16.83
2022-11-12T15:55:58.379Z,19.40
2022-11-12T15:59:19.434Z,19.30
2022-11-12T16:02:40.376Z,18.70
2022-11-12T16:06:07.133Z,17.75
2022-11-12T16:09:29.134Z,18.75
2022-11-12T16:12:51.867Z,18.65
2022-11-12T16:16:12.938Z,18.08
2022-11-12T16:19:34.558Z,18.60
2022-11-12T16:22:55.958Z,18.67
2022-11-12T16:26:23.162Z,18.98
2022-11-12T16:29:44.093Z,19.37
2022-11-12T16:33:04.860Z,19.25
2022-11-12T16:36:25.599Z,18.70
2022-11-12T16:39:46.414Z,18.00
2022-11-12T16:43:07.434Z,18.52
2022-11-12T16:46:30.422Z,19.00
2022-11-12T16:49:51.164Z,18.52
2022-11-12T16:53:12.536Z,18.35
2022-11-12T16:56:33.912Z,19.62
2022-11-12T16:59:54.722Z,17.23
2022-11-12T17:03:16.121Z,18.42
2022-11-12T17:06:39.817Z,19.60
2022-11-12T17:10:00.816Z,19.23
2022-11-12T17:13:21.540Z,19.37
2022-11-12T17:16:42.362Z,19.37
2022-11-12T17:20:03.362Z,19.40
2022-11-12T17:23:26.439Z,20.58
2022-11-12T17:26:47.870Z,19.70
2022-11-12T17:30:09.241Z,19.40
2022-11-12T17:33:30.521Z,20.25
2022-11-12T17:36:51.556Z,21.45
2022-11-12T17:40:12.382Z,21.23
2022-11-12T17:43:33.434Z,22.02
2022-11-12T17:46:54.139Z,22.23
2022-11-12T17:50:15.223Z,21.42
2022-11-12T17:53:36.457Z,21.75
2022-11-12T17:56:57.088Z,21.62
2022-11-12T18:00:18.398Z,24.58
2022-11-12T18:03:40.689Z,22.23
2022-11-12T18:07:01.616Z,22.95
2022-11-12T18:10:22.314Z,21.62
2022-11-12T18:13:43.356Z,24.25
2022-11-12T18:17:04.945Z,21.77
2022-11-12T18:20:26.662Z,22.40
2022-11-12T18:23:47.722Z,21.87
2022-11-12T18:27:08.260Z,21.98
2022-11-12T18:30:29.207Z,22.40
2022-11-12T18:33:50.773Z,22.70
2022-11-12T18:37:12.126Z,22.33
2022-11-12T18:40:32.808Z,23.65
2022-11-12T18:43:54.784Z,22.48
2022-11-12T18:47:15.514Z,23.45
2022-11-12T18:50:36.494Z,23.42
2022-11-12T18:53:57.250Z,24.05
2022-11-12T18:57:17.970Z,23.58
2022-11-12T19:00:39.479Z,23.25
2022-11-12T19:04:00.509Z,21.83
2022-11-12T19:07:21.169Z,22.85
2022-11-12T19:10:41.967Z,23.25
2022-11-12T19:14:02.727Z,23.10
2022-11-12T19:17:27.055Z,23.70
2022-11-12T19:20:50.600Z,23.75
2022-11-12T19:24:11.566Z,23.62
2022-11-12T19:27:32.987Z,23.77
2022-11-12T19:30:53.927Z,24.77
2022-11-12T19:34:14.719Z,24.40
2022-11-12T19:37:35.468Z,27.13
2022-11-12T19:41:02.271Z,24.15
2022-11-12T19:44:23.131Z,23.83
2022-11-12T19:47:43.845Z,24.12
2022-11-12T19:51:08.611Z,24.73
2022-11-12T19:54:29.455Z,23.60
2022-11-12T19:57:50.361Z,26.02
2022-11-12T20:01:14.327Z,24.85
2022-11-12T20:04:35.257Z,25.50
2022-11-12T20:07:56.150Z,25.73
2022-11-12T20:11:18.543Z,26.02
2022-11-12T20:14:39.325Z,25.27
2022-11-12T20:18:00.120Z,25.27
2022-11-12T20:21:20.593Z,26.20
2022-11-12T20:24:41.621Z,25.40
2022-11-12T20:28:02.518Z,26.65
2022-11-12T20:31:25.642Z,26.75
2022-11-12T20:34:46.594Z,26.73
2022-11-12T20:38:09.676Z,27.17
2022-11-12T20:41:31.447Z,27.37
2022-11-12T20:44:52.056Z,29.37
2022-11-12T20:48:15.094Z,30.08
2022-11-12T20:51:36.420Z,29.30
2022-11-12T20:54:57.668Z,29.27
2022-11-12T20:58:18.343Z,30.08
2022-11-12T21:01:40.643Z,28.38
2022-11-12T21:05:01.787Z,28.83
2022-11-12T21:08:23.420Z,29.17
2022-11-12T21:11:44.302Z,31.42
2022-11-12T21:15:05.697Z,30.85
2022-11-12T21:18:27.856Z,29.67
2022-11-12T21:21:48.919Z,29.15
2022-11-12T21:25:09.620Z,28.77
2022-11-12T21:28:38.455Z,28.73
2022-11-12T21:31:58.938Z,28.83
2022-11-12T21:35:19.725Z,29.27
2022-11-12T21:38:40.540Z,30.90
2022-11-12T21:42:01.832Z,29.87
2022-11-12T21:45:22.393Z,29.23
2022-11-12T21:48:44.083Z,29.52
2022-11-12T21:52:05.191Z,29.37
2022-11-12T21:55:26.040Z,28.55
2022-11-12T21:58:46.946Z,29.92
2022-11-12T22:02:10.749Z,29.27
2022-11-12T22:05:35.363Z,29.02
2022-11-12T22:08:57.809Z,30.52
2022-11-12T22:12:18.845Z,29.77
2022-11-12T22:15:39.473Z,29.70
2022-11-12T22:19:00.639Z,29.87
2022-11-12T22:22:21.581Z,32.95
2022-11-12T22:25:42.415Z,29.30
2022-11-12T22:29:03.340Z,30.80
2022-11-12T22:32:24.305Z,29.77
2022-11-12T22:35:45.153Z,30.12
2022-11-12T22:39:06.181Z,31.75
2022-11-12T22:42:26.866Z,35.88
2022-11-12T22:45:47.593Z,32.67
2022-11-12T22:49:08.522Z,31.92
2022-11-12T22:52:29.324Z,31.87
2022-11-12T22:55:50.027Z,32.33
2022-11-12T22:59:11.590Z,32.95
2022-11-12T23:02:32.002Z,32.63
2022-11-12T23:05:57.630Z,31.60
2022-11-12T23:09:18.537Z,31.75
2022-11-12T23:12:39.767Z,32.42
2022-11-12T23:16:00.915Z,33.42
2022-11-12T23:19:21.890Z,32.85
2022-11-12T23:22:42.799Z,35.38
2022-11-12T23:26:09.886Z,32.65
2022-11-12T23:29:30.429Z,33.67
2022-11-12T23:32:51.224Z,33.75
2022-11-12T23:36:12.826Z,35.25
2022-11-12T23:39:33.694Z,35.92
2022-11-12T23:42:54.723Z,33.60
2022-11-12T23:46:15.755Z,33.70
2022-11-12T23:49:36.472Z,35.30
2022-11-12T23:52:57.284Z,36.45
2022-11-12T23:56:19.812Z,36.95
2022-11-12T23:59:40.582Z,34.17
